createdAt,value
2018-05-08T00:00:36.579Z,6.83
2018-05-08T00:03:03.235Z,9.67
2018-05-08T00:05:35.479Z,6.20
2018-05-08T00:08:02.157Z,6.40
2018-05-08T00:10:28.869Z,6.73
2018-05-08T00:12:55.493Z,6.60
2018-05-08T00:15:22.472Z,7.67
2018-05-08T00:17:49.065Z,5.90
2018-05-08T00:20:15.729Z,6.93
2018-05-08T00:22:42.549Z,4.40
2018-05-08T00:25:14.055Z,9.63
2018-05-08T00:27:40.605Z,5.40
2018-05-08T00:30:07.184Z,5.60
2018-05-08T00:32:33.877Z,6.87
2018-05-08T00:35:04.253Z,5.63
2018-05-08T00:37:30.885Z,5.87
2018-05-08T00:39:57.590Z,14.57
2018-05-08T00:42:24.509Z,7.03
2018-05-08T00:44:55.486Z,5.77
2018-05-08T00:47:22.014Z,7.57
2018-05-08T00:49:49.114Z,7.43
2018-05-08T00:52:15.813Z,8.40
2018-05-08T00:54:55.966Z,9.40
2018-05-08T00:57:22.493Z,5.87
2018-05-08T00:59:49.260Z,14.00
2018-05-08T01:02:15.998Z,8.50
2018-05-08T01:04:45.839Z,6.57
2018-05-08T01:07:12.502Z,12.90
2018-05-08T01:09:39.134Z,6.80
2018-05-08T01:12:05.846Z,6.73
2018-05-08T01:14:36.430Z,10.40
2018-05-08T01:17:02.944Z,10.33
2018-05-08T01:19:29.449Z,6.00
2018-05-08T01:21:56.166Z,5.70
2018-05-08T01:24:26.850Z,9.17
2018-05-08T01:26:53.598Z,6.07
2018-05-08T01:29:20.561Z,7.43
2018-05-08T01:31:47.213Z,9.13
2018-05-08T01:34:24.418Z,8.20
2018-05-08T01:36:51.137Z,10.87
2018-05-08T01:39:17.844Z,5.83
2018-05-08T01:41:44.577Z,6.70
2018-05-08T01:44:11.372Z,8.80
2018-05-08T01:46:38.128Z,7.23
2018-05-08T01:49:04.798Z,8.73
2018-05-08T01:51:31.452Z,6.40
2018-05-08T01:53:58.090Z,8.20
2018-05-08T01:56:29.979Z,8.17
2018-05-08T01:58:56.651Z,7.57
2018-05-08T02:01:23.633Z,6.43
2018-05-08T02:03:50.429Z,14.23
2018-05-08T02:06:23.779Z,10.90
2018-05-08T02:08:50.414Z,7.00
2018-05-08T02:11:17.263Z,7.30
2018-05-08T02:13:44.062Z,11.47
2018-05-08T02:16:11.935Z,10.20
2018-05-08T02:18:38.687Z,8.77
2018-05-08T02:21:05.314Z,9.13
2018-05-08T02:23:32.059Z,9.23
2018-05-08T02:26:05.297Z,6.77
2018-05-08T02:28:32.037Z,7.77
2018-05-08T02:30:58.748Z,6.83
2018-05-08T02:33:25.727Z,9.57
2018-05-08T02:35:53.287Z,8.43
2018-05-08T02:38:19.845Z,8.17
2018-05-08T02:40:46.434Z,8.03
2018-05-08T02:43:13.310Z,10.90
2018-05-08T02:45:40.628Z,8.70
2018-05-08T02:48:07.169Z,6.97
2018-05-08T02:50:33.744Z,9.50
2018-05-08T02:53:00.458Z,8.83
2018-05-08T02:55:27.382Z,11.13
2018-05-08T02:57:54.558Z,6.93
2018-05-08T03:00:21.274Z,7.87
2018-05-08T03:02:47.887Z,8.20
2018-05-08T03:05:27.803Z,18.40
2018-05-08T03:07:54.412Z,12.50
2018-05-08T03:10:21.021Z,13.53
2018-05-08T03:12:47.537Z,14.67
2018-05-08T03:15:17.988Z,8.40
2018-05-08T03:17:44.583Z,8.90
2018-05-08T03:20:11.204Z,10.60
2018-05-08T03:22:37.853Z,6.90
2018-05-08T03:25:06.411Z,8.73
2018-05-08T03:27:33.108Z,7.87
2018-05-08T03:30:00.038Z,8.07
2018-05-08T03:32:26.770Z,9.97
2018-05-08T03:34:56.707Z,9.90
2018-05-08T03:37:23.400Z,7.67
2018-05-08T03:39:50.099Z,8.13
2018-05-08T03:42:16.753Z,9.23
2018-05-08T03:44:44.154Z,10.50
2018-05-08T03:47:10.776Z,8.00
2018-05-08T03:49:37.475Z,9.47
2018-05-08T03:52:03.962Z,11.53
2018-05-08T03:54:31.979Z,9.87
2018-05-08T03:56:59.009Z,15.10
2018-05-08T03:59:25.777Z,9.03
2018-05-08T04:02:04.660Z,17.13
2018-05-08T04:04:44.505Z,13.23
2018-05-08T04:07:23.141Z,11.50
2018-05-08T04:09:49.767Z,8.70
2018-05-08T04:12:16.313Z,9.03
2018-05-08T04:14:49.054Z,9.00
2018-05-08T04:17:15.743Z,14.57
2018-05-08T04:19:42.958Z,12.23
2018-05-08T04:22:09.634Z,13.03
2018-05-08T04:24:39.633Z,8.63
2018-05-08T04:27:06.270Z,8.93
2018-05-08T04:29:32.989Z,13.17
2018-05-08T04:32:00.037Z,11.93
2018-05-08T04:34:26.733Z,9.77
2018-05-08T04:36:53.657Z,16.23
2018-05-08T04:39:20.597Z,10.83
2018-05-08T04:41:47.431Z,13.77
2018-05-08T04:44:15.128Z,11.73
2018-05-08T04:46:41.947Z,19.17
2018-05-08T04:49:09.224Z,15.63
2018-05-08T04:51:35.877Z,10.53
2018-05-08T04:54:04.515Z,12.60
2018-05-08T04:56:31.065Z,11.13
2018-05-08T04:58:58.458Z,8.97
2018-05-08T05:01:25.202Z,13.57
2018-05-08T05:03:57.017Z,9.33
2018-05-08T05:06:23.910Z,12.53
2018-05-08T05:08:50.577Z,9.07
2018-05-08T05:11:17.545Z,9.47
2018-05-08T05:13:44.223Z,15.27
2018-05-08T05:16:11.389Z,11.00
2018-05-08T05:18:38.134Z,31.67
2018-05-08T05:21:04.933Z,12.90
2018-05-08T05:23:31.568Z,11.53
2018-05-08T05:25:58.455Z,16.03
2018-05-08T05:28:25.398Z,12.13
2018-05-08T05:30:52.097Z,14.53
2018-05-08T05:33:18.826Z,15.57
2018-05-08T05:35:46.705Z,10.10
2018-05-08T05:38:13.261Z,13.10
2018-05-08T05:40:39.877Z,10.63
2018-05-08T05:43:06.432Z,13.27
2018-05-08T05:45:36.542Z,9.03
2018-05-08T05:48:04.098Z,11.57
2018-05-08T05:50:30.615Z,9.60
2018-05-08T05:52:57.216Z,10.73
2018-05-08T05:55:27.231Z,9.03
2018-05-08T05:57:53.882Z,12.80
2018-05-08T06:00:20.586Z,9.37
2018-05-08T06:02:47.209Z,10.60
2018-05-08T06:05:20.003Z,9.30
2018-05-08T06:07:46.720Z,12.43
2018-05-08T06:10:13.365Z,11.70
2018-05-08T06:12:40.096Z,12.13
2018-05-08T06:15:07.048Z,8.23
2018-05-08T06:17:33.647Z,12.00
2018-05-08T06:20:00.480Z,9.97
2018-05-08T06:22:27.033Z,13.73
2018-05-08T06:25:00.420Z,9.40
2018-05-08T06:27:27.710Z,9.00
2018-05-08T06:29:54.194Z,12.17
2018-05-08T06:32:20.809Z,13.50
2018-05-08T06:34:50.963Z,9.80
2018-05-08T06:37:17.652Z,9.47
2018-05-08T06:39:44.364Z,9.13
2018-05-08T06:42:10.976Z,10.57
2018-05-08T06:44:38.904Z,9.77
2018-05-08T06:47:05.576Z,8.87
2018-05-08T06:49:32.277Z,10.83
2018-05-08T06:51:58.963Z,9.20
2018-05-08T06:54:29.725Z,7.83
2018-05-08T06:56:56.380Z,9.33
2018-05-08T06:59:23.961Z,9.73
2018-05-08T07:01:50.637Z,13.50
2018-05-08T07:04:18.485Z,9.07
2018-05-08T07:06:45.486Z,7.43
2018-05-08T07:09:12.234Z,13.03
2018-05-08T07:11:38.677Z,11.20
2018-05-08T07:14:13.933Z,9.20
2018-05-08T07:16:40.677Z,8.37
2018-05-08T07:19:07.305Z,15.80
2018-05-08T07:21:34.035Z,8.77
2018-05-08T07:24:00.738Z,6.97
2018-05-08T07:26:27.285Z,8.07
2018-05-08T07:28:53.842Z,10.30
2018-05-08T07:31:20.451Z,9.30
2018-05-08T07:33:50.969Z,12.47
2018-05-08T07:36:17.652Z,7.30
2018-05-08T07:38:44.149Z,9.10
2018-05-08T07:41:10.789Z,8.73
2018-05-08T07:43:44.805Z,7.93
2018-05-08T07:46:11.473Z,7.33
2018-05-08T07:48:38.026Z,8.03
2018-05-08T07:51:04.650Z,12.50
2018-05-08T07:53:34.748Z,11.07
2018-05-08T07:56:01.493Z,12.43
2018-05-08T07:58:28.502Z,10.57
2018-05-08T08:00:55.697Z,11.90
2018-05-08T08:03:32.905Z,9.20
2018-05-08T08:05:59.605Z,9.53
2018-05-08T08:08:26.181Z,9.47
2018-05-08T08:10:52.959Z,9.13
2018-05-08T08:13:22.884Z,12.33
2018-05-08T08:15:49.555Z,13.63
2018-05-08T08:18:16.342Z,14.20
2018-05-08T08:20:43.007Z,12.63
2018-05-08T08:23:09.608Z,11.83
2018-05-08T08:25:36.397Z,12.90
2018-05-08T08:28:03.072Z,8.93
2018-05-08T08:30:29.802Z,9.60
2018-05-08T08:32:56.491Z,9.83
2018-05-08T08:35:30.224Z,8.13
2018-05-08T08:37:56.899Z,9.33
2018-05-08T08:40:23.726Z,11.43
2018-05-08T08:42:50.331Z,13.43
2018-05-08T08:45:17.039Z,15.30
2018-05-08T08:47:43.774Z,11.63
2018-05-08T08:50:10.235Z,10.23
2018-05-08T08:52:36.873Z,13.73
2018-05-08T08:55:04.887Z,9.27
2018-05-08T08:57:31.579Z,8.87
2018-05-08T08:59:58.370Z,12.53
2018-05-08T09:02:25.675Z,9.60
2018-05-08T09:04:52.364Z,12.57
2018-05-08T09:07:19.353Z,26.27
2018-05-08T09:09:46.302Z,10.23
2018-05-08T09:12:12.951Z,14.23
2018-05-08T09:14:40.652Z,12.83
2018-05-08T09:17:07.384Z,13.10
2018-05-08T09:19:34.338Z,15.77
2018-05-08T09:22:01.034Z,11.67
2018-05-08T09:24:27.737Z,12.70
2018-05-08T09:26:54.334Z,13.17
2018-05-08T09:29:20.857Z,10.47
2018-05-08T09:31:47.708Z,9.43
2018-05-08T09:34:19.466Z,13.53
2018-05-08T09:36:46.086Z,10.20
2018-05-08T09:39:12.719Z,10.70
2018-05-08T09:41:39.660Z,13.97
2018-05-08T09:44:08.139Z,15.40
2018-05-08T09:46:34.755Z,12.77
2018-05-08T09:49:01.569Z,16.10
2018-05-08T09:51:28.208Z,15.40
2018-05-08T09:53:58.113Z,14.13
2018-05-08T09:56:24.720Z,14.73
2018-05-08T09:58:51.446Z,12.93
2018-05-08T10:01:17.981Z,13.27
2018-05-08T10:03:45.726Z,16.20
2018-05-08T10:06:12.380Z,13.57
2018-05-08T10:08:38.944Z,13.90
2018-05-08T10:11:06.189Z,10.93
2018-05-08T10:13:39.544Z,11.90
2018-05-08T10:16:06.300Z,12.83
2018-05-08T10:18:33.114Z,11.57
2018-05-08T10:20:59.744Z,12.93
2018-05-08T10:23:33.027Z,16.27
2018-05-08T10:25:59.915Z,14.30
2018-05-08T10:28:26.860Z,15.90
2018-05-08T10:30:54.208Z,14.47
2018-05-08T10:33:27.047Z,14.67
2018-05-08T10:35:54.253Z,15.00
2018-05-08T10:38:20.975Z,12.00
2018-05-08T10:40:47.719Z,14.57
2018-05-08T10:43:18.480Z,13.10
2018-05-08T10:45:45.135Z,18.90
2018-05-08T10:48:11.793Z,15.63
2018-05-08T10:50:38.478Z,13.97
2018-05-08T10:53:06.145Z,16.50
2018-05-08T10:55:32.723Z,16.40
2018-05-08T10:57:59.618Z,14.87
2018-05-08T11:00:26.498Z,14.93
2018-05-08T11:02:56.990Z,13.60
2018-05-08T11:05:23.602Z,15.40
2018-05-08T11:07:50.195Z,13.47
2018-05-08T11:10:17.372Z,15.00
2018-05-08T11:12:44.342Z,18.03
2018-05-08T11:15:11.672Z,16.80
2018-05-08T11:17:38.279Z,18.97
2018-05-08T11:20:04.840Z,19.37
2018-05-08T11:22:31.329Z,15.90
2018-05-08T11:24:59.019Z,17.50
2018-05-08T11:27:30.612Z,18.50
2018-05-08T11:29:57.193Z,16.73
2018-05-08T11:32:23.972Z,20.73
2018-05-08T11:34:57.038Z,20.10
2018-05-08T11:37:23.862Z,21.27
2018-05-08T11:39:50.941Z,19.30
2018-05-08T11:42:17.595Z,20.27
2018-05-08T11:44:50.694Z,25.40
2018-05-08T11:47:17.473Z,18.07
2018-05-08T11:49:44.572Z,25.43
2018-05-08T11:52:11.204Z,21.63
2018-05-08T11:54:41.445Z,18.57
2018-05-08T11:57:09.526Z,17.87
2018-05-08T11:59:36.235Z,17.27
2018-05-08T12:02:03.196Z,17.63
2018-05-08T12:04:33.160Z,18.13
2018-05-08T12:06:59.749Z,20.83
2018-05-08T12:09:26.633Z,16.50
2018-05-08T12:11:53.816Z,16.03
2018-05-08T12:14:23.751Z,16.90
2018-05-08T12:16:50.514Z,19.00
2018-05-08T12:19:17.143Z,18.27
2018-05-08T12:21:44.378Z,20.50
2018-05-08T12:24:14.932Z,28.03
2018-05-08T12:26:41.625Z,20.23
2018-05-08T12:29:08.535Z,17.73
2018-05-08T12:31:35.142Z,20.27
2018-05-08T12:34:05.278Z,19.10
2018-05-08T12:36:32.092Z,19.43
2018-05-08T12:38:58.829Z,19.23
2018-05-08T12:41:25.543Z,19.67
2018-05-08T12:43:52.147Z,19.17
2018-05-08T12:46:18.732Z,16.83
2018-05-08T12:48:45.401Z,18.00
2018-05-08T12:51:12.069Z,18.37
2018-05-08T12:53:43.227Z,22.07
2018-05-08T12:56:09.905Z,16.20
2018-05-08T12:58:36.502Z,16.27
2018-05-08T13:01:03.140Z,17.93
2018-05-08T13:03:43.710Z,18.80
2018-05-08T13:06:10.195Z,16.47
2018-05-08T13:08:37.075Z,19.87
2018-05-08T13:11:03.761Z,20.93
2018-05-08T13:13:30.429Z,19.87
2018-05-08T13:15:57.162Z,18.23
2018-05-08T13:18:23.879Z,21.37
2018-05-08T13:20:50.457Z,22.10
2018-05-08T13:23:23.792Z,17.93
2018-05-08T13:25:50.354Z,17.70
2018-05-08T13:28:16.980Z,19.57
2018-05-08T13:30:43.593Z,20.17
2018-05-08T13:33:11.608Z,19.03
2018-05-08T13:35:38.336Z,17.37
2018-05-08T13:38:05.750Z,21.80
2018-05-08T13:40:32.307Z,17.83
2018-05-08T13:42:59.125Z,18.63
2018-05-08T13:45:25.926Z,18.20
2018-05-08T13:47:52.644Z,19.17
2018-05-08T13:50:19.258Z,24.40
2018-05-08T13:52:46.894Z,17.50
2018-05-08T13:55:13.632Z,20.47
2018-05-08T13:57:40.212Z,20.37
2018-05-08T14:00:06.967Z,21.80
2018-05-08T14:02:34.694Z,19.77
2018-05-08T14:05:01.335Z,16.57
2018-05-08T14:07:28.008Z,15.93
2018-05-08T14:09:54.665Z,22.67
2018-05-08T14:12:21.405Z,16.57
2018-05-08T14:14:48.073Z,20.73
2018-05-08T14:17:14.715Z,18.60
2018-05-08T14:19:41.577Z,17.97
2018-05-08T14:22:08.226Z,15.97
2018-05-08T14:24:35.221Z,21.90
2018-05-08T14:27:01.700Z,17.60
2018-05-08T14:29:28.414Z,17.67
2018-05-08T14:31:55.526Z,18.40
2018-05-08T14:34:28.798Z,17.67
2018-05-08T14:36:55.488Z,17.83
2018-05-08T14:39:22.043Z,15.60
2018-05-08T14:41:48.957Z,17.80
2018-05-08T14:44:15.821Z,26.30
2018-05-08T14:46:42.829Z,16.23
2018-05-08T14:49:09.521Z,15.70
2018-05-08T14:51:36.615Z,17.30
2018-05-08T14:54:06.578Z,14.63
2018-05-08T14:56:33.266Z,15.63
2018-05-08T14:59:00.011Z,16.23
2018-05-08T15:01:27.213Z,16.37
2018-05-08T15:04:00.941Z,12.73
2018-05-08T15:06:27.575Z,15.27
2018-05-08T15:08:54.269Z,12.20
2018-05-08T15:11:21.141Z,13.93
2018-05-08T15:13:48.199Z,11.83
2018-05-08T15:16:14.842Z,11.30
2018-05-08T15:18:41.499Z,12.33
2018-05-08T15:21:08.252Z,12.83
2018-05-08T15:23:37.919Z,14.47
2018-05-08T15:26:04.634Z,17.83
2018-05-08T15:28:31.166Z,17.37
2018-05-08T15:30:58.111Z,12.53
2018-05-08T15:33:28.954Z,15.50
2018-05-08T15:35:55.661Z,13.70
2018-05-08T15:38:22.278Z,15.70
2018-05-08T15:40:48.890Z,12.30
2018-05-08T15:43:19.280Z,13.03
2018-05-08T15:45:45.861Z,15.17
2018-05-08T15:48:12.358Z,12.00
2018-05-08T15:50:39.615Z,15.37
2018-05-08T15:53:10.788Z,11.93
2018-05-08T15:55:37.430Z,11.90
2018-05-08T15:58:04.173Z,16.07
2018-05-08T16:00:30.748Z,15.93
2018-05-08T16:02:59.478Z,13.33
2018-05-08T16:05:26.110Z,15.23
2018-05-08T16:07:52.817Z,15.07
2018-05-08T16:10:19.464Z,13.60
2018-05-08T16:12:46.093Z,11.30
2018-05-08T16:15:12.734Z,11.50
2018-05-08T16:17:39.401Z,10.20
2018-05-08T16:20:06.158Z,15.50
2018-05-08T16:22:36.626Z,10.17
2018-05-08T16:25:03.245Z,10.93
2018-05-08T16:27:29.869Z,9.83
2018-05-08T16:29:56.613Z,9.93
2018-05-08T16:32:28.650Z,13.47
2018-05-08T16:34:55.345Z,8.90
2018-05-08T16:37:22.021Z,9.87
2018-05-08T16:39:48.669Z,12.70
2018-05-08T16:42:21.733Z,14.10
2018-05-08T16:44:48.476Z,8.10
2018-05-08T16:47:15.216Z,9.63
2018-05-08T16:49:41.964Z,8.93
2018-05-08T16:52:09.773Z,7.27
2018-05-08T16:54:36.471Z,7.80
2018-05-08T16:57:03.146Z,7.10
2018-05-08T16:59:29.900Z,6.87
2018-05-08T17:02:00.039Z,7.13
2018-05-08T17:04:26.653Z,5.77
2018-05-08T17:06:53.349Z,6.30
2018-05-08T17:09:20.099Z,10.80
2018-05-08T17:11:46.631Z,5.87
2018-05-08T17:14:13.372Z,7.93
2018-05-08T17:16:40.006Z,5.37
2018-05-08T17:19:07.270Z,6.73
2018-05-08T17:21:33.886Z,6.60
2018-05-08T17:24:07.290Z,6.33
2018-05-08T17:26:33.970Z,6.20
2018-05-08T17:29:00.587Z,6.70
2018-05-08T17:31:27.273Z,5.67
2018-05-08T17:33:55.042Z,6.73
2018-05-08T17:36:22.211Z,7.30
2018-05-08T17:38:48.971Z,7.80
2018-05-08T17:41:15.696Z,9.03
2018-05-08T17:43:46.660Z,8.20
2018-05-08T17:46:14.041Z,9.00
2018-05-08T17:48:40.672Z,9.77
2018-05-08T17:51:07.408Z,9.37
2018-05-08T17:53:38.026Z,9.97
2018-05-08T17:56:04.674Z,12.60
2018-05-08T17:58:31.367Z,10.07
2018-05-08T18:00:57.955Z,11.30
2018-05-08T18:03:28.658Z,12.17
2018-05-08T18:05:55.316Z,13.33
2018-05-08T18:08:22.035Z,14.27
2018-05-08T18:10:48.785Z,11.20
2018-05-08T18:13:21.493Z,12.20
2018-05-08T18:15:48.151Z,14.87
2018-05-08T18:18:15.358Z,12.10
2018-05-08T18:20:42.361Z,12.60
2018-05-08T18:23:09.025Z,16.37
2018-05-08T18:25:35.732Z,13.40
2018-05-08T18:28:02.804Z,13.37
2018-05-08T18:30:29.486Z,13.20
2018-05-08T18:32:56.709Z,14.37
2018-05-08T18:35:23.307Z,17.80
2018-05-08T18:37:50.233Z,14.03
2018-05-08T18:40:16.884Z,14.30
2018-05-08T18:42:44.538Z,15.60
2018-05-08T18:45:11.096Z,14.77
2018-05-08T18:47:37.748Z,17.37
2018-05-08T18:50:04.287Z,15.60
2018-05-08T18:52:31.093Z,15.47
2018-05-08T18:54:57.678Z,16.90
2018-05-08T18:57:25.704Z,17.77
2018-05-08T18:59:52.404Z,19.00
2018-05-08T19:02:19.137Z,15.90
2018-05-08T19:04:46.208Z,16.50
2018-05-08T19:07:12.931Z,16.50
2018-05-08T19:09:39.723Z,18.90
2018-05-08T19:12:10.137Z,16.70
2018-05-08T19:14:36.773Z,21.00
2018-05-08T19:17:03.632Z,18.77
2018-05-08T19:19:36.309Z,21.20
2018-05-08T19:22:16.930Z,18.60
2018-05-08T19:24:43.626Z,19.53
2018-05-08T19:27:10.218Z,20.97
2018-05-08T19:29:42.783Z,23.37
2018-05-08T19:32:09.776Z,23.70
2018-05-08T19:34:42.309Z,23.63
2018-05-08T19:37:18.201Z,20.30
2018-05-08T19:39:45.742Z,21.93
2018-05-08T19:42:12.540Z,26.53
2018-05-08T19:44:39.138Z,21.47
2018-05-08T19:47:05.748Z,20.87
2018-05-08T19:49:32.350Z,22.40
2018-05-08T19:51:59.050Z,22.40
2018-05-08T19:54:25.803Z,24.67
2018-05-08T19:56:52.495Z,26.90
2018-05-08T19:59:19.765Z,27.03
2018-05-08T20:01:46.443Z,28.67
2018-05-08T20:04:12.945Z,28.17
2018-05-08T20:06:39.613Z,25.23
2018-05-08T20:09:06.214Z,24.00
2018-05-08T20:11:36.119Z,23.50
2018-05-08T20:14:02.760Z,22.23
2018-05-08T20:16:29.440Z,23.00
2018-05-08T20:18:56.049Z,21.00
2018-05-08T20:21:22.657Z,23.67
2018-05-08T20:23:49.304Z,23.60
2018-05-08T20:26:15.932Z,23.03
2018-05-08T20:28:42.623Z,24.77
2018-05-08T20:31:09.274Z,22.93
2018-05-08T20:33:36.070Z,27.10
2018-05-08T20:36:02.773Z,22.13
2018-05-08T20:38:29.482Z,22.00
2018-05-08T20:40:56.292Z,24.17
2018-05-08T20:43:41.766Z,27.00
2018-05-08T20:46:08.333Z,25.70
2018-05-08T20:48:35.377Z,24.37
2018-05-08T20:51:02.124Z,29.93
2018-05-08T20:53:28.800Z,24.43
2018-05-08T20:55:55.430Z,26.57
2018-05-08T20:58:22.120Z,26.80
2018-05-08T21:00:48.953Z,23.70
2018-05-08T21:03:21.737Z,23.37
2018-05-08T21:05:48.410Z,24.63
2018-05-08T21:08:14.978Z,25.70
2018-05-08T21:10:41.858Z,28.03
2018-05-08T21:13:09.970Z,27.97
2018-05-08T21:15:36.725Z,28.10
2018-05-08T21:18:03.403Z,28.43
2018-05-08T21:20:30.639Z,27.13
2018-05-08T21:22:57.500Z,27.93
2018-05-08T21:25:23.995Z,25.57
2018-05-08T21:27:56.683Z,32.77
2018-05-08T21:30:29.286Z,25.67
2018-05-08T21:32:58.136Z,30.50
2018-05-08T21:35:25.415Z,24.33
2018-05-08T21:37:51.998Z,25.80
2018-05-08T21:40:18.645Z,25.37
2018-05-08T21:42:48.950Z,26.83
2018-05-08T21:45:15.655Z,31.13
2018-05-08T21:47:42.985Z,26.13
2018-05-08T21:50:09.606Z,29.87
2018-05-08T21:52:43.172Z,31.70
2018-05-08T21:55:09.887Z,33.50
2018-05-08T21:57:36.583Z,28.20
2018-05-08T22:00:03.394Z,26.27
2018-05-08T22:02:30.047Z,23.83
2018-05-08T22:04:56.681Z,26.17
2018-05-08T22:07:23.809Z,24.73
2018-05-08T22:09:50.350Z,23.93
2018-05-08T22:12:20.132Z,24.73
2018-05-08T22:14:46.785Z,23.87
2018-05-08T22:17:13.632Z,21.77
2018-05-08T22:19:40.197Z,28.47
2018-05-08T22:22:14.227Z,28.70
2018-05-08T22:24:40.869Z,31.93
2018-05-08T22:27:07.559Z,29.70
2018-05-08T22:29:34.360Z,29.37
2018-05-08T22:32:04.666Z,25.67
2018-05-08T22:34:31.476Z,23.83
2018-05-08T22:36:58.185Z,24.97
2018-05-08T22:39:24.880Z,28.47
2018-05-08T22:41:55.420Z,28.57
2018-05-08T22:44:22.102Z,30.30
2018-05-08T22:46:49.009Z,25.53
2018-05-08T22:49:15.691Z,29.13
2018-05-08T22:51:45.955Z,31.47
2018-05-08T22:54:12.601Z,29.33
2018-05-08T22:56:39.654Z,31.27
2018-05-08T22:59:06.388Z,32.70
2018-05-08T23:01:39.833Z,34.00
2018-05-08T23:04:06.426Z,26.40
2018-05-08T23:06:33.059Z,20.77
2018-05-08T23:08:59.853Z,29.63
2018-05-08T23:11:26.705Z,24.93
2018-05-08T23:13:53.963Z,29.03
2018-05-08T23:16:20.661Z,35.83
2018-05-08T23:18:47.364Z,24.03
2018-05-08T23:21:15.188Z,26.20
2018-05-08T23:23:41.864Z,29.70
2018-05-08T23:26:08.514Z,33.83
2018-05-08T23:28:35.285Z,33.93
2018-05-08T23:31:08.817Z,25.07
2018-05-08T23:33:35.572Z,31.77
2018-05-08T23:36:02.294Z,32.00
2018-05-08T23:38:28.953Z,30.03
2018-05-08T23:41:06.148Z,26.30
2018-05-08T23:43:32.854Z,31.70
2018-05-08T23:45:59.570Z,34.03
2018-05-08T23:48:26.214Z,26.33
2018-05-08T23:50:52.866Z,25.13
2018-05-08T23:53:19.856Z,21.83
2018-05-08T23:55:46.359Z,28.03
2018-05-08T23:58:12.870Z,34.90
